Time;durP1;ratioP1;P1;durP2;ratioP2;P2;SDS_P1;SDS_P2;PMS_P1;PMS_P2;Temp;Humidity;BMP_temperature;BMP_pressure;BME280_temperature;BME280_humidity;BME280_pressure;Samples;Min_cycle;Max_cycle;Signal;HPM_P1;HPM_P2
2021/07/09 00:00:30;;;;;;;2.25;0.75;;;18.60;93.60;18.50;100252.00;;;;336319;28;83347;-85
2021/07/09 00:00:44;;;;;;;2.15;0.60;;;18.60;93.60;18.30;100256.00;;;;334027;29;94451;-86
2021/07/09 00:00:57;;;;;;;1.83;0.80;;;18.60;93.60;18.30;100251.00;;;;336195;28;84729;-85
2021/07/09 00:01:09;;;;;;;2.03;0.98;;;18.60;93.60;18.20;100255.00;;;;335542;28;97538;-85
2021/07/09 00:01:22;;;;;;;1.90;0.80;;;18.50;93.60;18.40;100248.00;;;;333943;29;83203;-85
2021/07/09 00:01:34;;;;;;;1.95;0.90;;;18.50;93.70;18.60;100247.00;;;;331797;29;95850;-86
2021/07/09 00:01:46;;;;;;;2.28;1.00;;;18.60;93.80;18.60;100257.00;;;;335151;29;83177;-86
2021/07/09 00:01:58;;;;;;;2.58;1.25;;;18.50;93.70;18.50;100253.00;;;;337042;28;94852;-85
2021/07/09 00:02:10;;;;;;;2.00;1.00;;;18.50;93.60;18.50;100245.00;;;;335111;29;82686;-86
2021/07/09 00:02:22;;;;;;;2.80;1.30;;;18.60;93.70;18.40;100253.00;;;;336832;28;94918;-86
2021/07/09 00:02:35;;;;;;;2.97;1.10;;;18.50;93.50;18.40;100249.00;;;;335070;29;83584;-86
2021/07/09 00:02:52;;;;;;;3.85;1.33;;;18.60;93.60;18.40;100252.00;;;;335605;28;94524;-85
2021/07/09 00:03:04;;;;;;;3.00;1.27;;;18.50;93.50;18.50;100245.00;;;;338214;28;84963;-86
2021/07/09 00:03:16;;;;;;;1.63;0.90;;;18.50;93.50;18.60;100249.00;;;;338280;28;94886;-86
2021/07/09 00:03:28;;;;;;;1.80;1.17;;;18.50;93.60;18.60;100247.00;;;;336322;28;82552;-85
2021/07/09 00:03:41;;;;;;;2.65;1.13;;;18.50;93.60;18.60;100259.00;;;;332920;29;95374;-86
2021/07/09 00:03:53;;;;;;;2.92;1.15;;;18.50;93.60;18.50;100251.00;;;;336084;28;82387;-85
2021/07/09 00:04:05;;;;;;;4.97;1.00;;;18.50;93.60;18.50;100254.00;;;;336955;28;95309;-86
2021/07/09 00:04:17;;;;;;;5.10;1.00;;;18.60;93.70;18.60;100255.00;;;;336408;28;83652;-85
2021/07/09 00:04:29;;;;;;;5.40;0.98;;;18.50;93.70;18.60;100250.00;;;;334377;29;93986;-86
2021/07/09 00:04:41;;;;;;;3.22;1.10;;;18.60;93.70;18.60;100246.00;;;;332415;29;83793;-86
2021/07/09 00:04:53;;;;;;;3.20;1.10;;;18.50;93.90;18.60;100250.00;;;;334422;29;93363;-85
2021/07/09 00:05:06;;;;;;;2.80;0.95;;;18.60;93.70;18.70;100248.00;;;;333786;29;83230;-85
2021/07/09 00:05:18;;;;;;;3.50;0.88;;;18.60;93.70;18.50;100240.00;;;;334258;29;94620;-86
2021/07/09 00:05:29;;;;;;;5.45;1.15;;;18.60;93.80;18.40;100247.00;;;;336228;28;83700;-85
2021/07/09 00:05:41;;;;;;;5.35;1.20;;;18.60;93.80;18.60;100251.00;;;;334299;29;96701;-86
2021/07/09 00:05:53;;;;;;;2.63;0.95;;;18.60;93.80;18.70;100246.00;;;;332292;29;83258;-86
2021/07/09 00:06:05;;;;;;;2.53;0.85;;;18.50;93.90;18.70;100251.00;;;;334080;28;94527;-87
2021/07/09 00:06:20;;;;;;;2.65;1.00;;;18.60;93.90;18.80;100249.00;;;;336413;28;83226;-86
2021/07/09 00:06:32;;;;;;;2.45;1.10;;;18.60;93.90;18.70;100245.00;;;;334245;29;95352;-86
2021/07/09 00:06:44;;;;;;;1.85;1.10;;;18.60;94.00;18.70;100246.00;;;;337613;28;83206;-86
2021/07/09 00:06:55;;;;;;;2.15;0.98;;;18.60;94.00;18.60;100245.00;;;;333016;29;94738;-86
2021/07/09 00:07:07;;;;;;;2.20;0.85;;;18.60;94.00;18.70;100248.00;;;;334970;29;84582;-85
2021/07/09 00:07:19;;;;;;;1.50;0.80;;;18.60;94.00;18.80;100241.00;;;;335359;28;94902;-86
2021/07/09 00:07:31;;;;;;;1.95;0.90;;;18.60;94.00;18.50;100239.00;;;;335599;28;84203;-85
2021/07/09 00:07:43;;;;;;;3.08;0.90;;;18.60;94.00;18.50;100243.00;;;;333094;29;95727;-85
2021/07/09 00:07:54;;;;;;;3.58;1.15;;;18.60;94.10;18.60;100243.00;;;;332568;29;82501;-85
2021/07/09 00:08:06;;;;;;;3.90;1.17;;;18.60;94.10;18.70;100245.00;;;;334362;29;93831;-86
2021/07/09 00:08:18;;;;;;;2.45;1.15;;;18.60;94.10;18.60;100243.00;;;;336348;28;83275;-84
2021/07/09 00:08:30;;;;;;;1.77;0.88;;;18.60;94.10;18.50;100246.00;;;;336911;28;94350;-86
2021/07/09 00:08:42;;;;;;;2.08;1.08;;;18.60;94.30;18.40;100246.00;;;;334972;28;83265;-86
2021/07/09 00:08:53;;;;;;;2.15;1.10;;;18.50;94.20;18.30;100247.00;;;;337385;28;93746;-86
2021/07/09 00:09:06;;;;;;;2.95;1.10;;;18.50;94.20;18.40;100248.00;;;;336128;28;83433;-86
2021/07/09 00:09:18;;;;;;;2.83;0.80;;;18.50;94.10;18.60;100245.00;;;;335596;28;94962;-86
2021/07/09 00:09:30;;;;;;;4.53;0.88;;;18.50;94.10;18.70;100245.00;;;;333657;29;85508;-86
2021/07/09 00:09:46;;;;;;;4.18;0.98;;;18.50;94.30;18.80;100237.00;;;;331711;29;95274;-86
2021/07/09 00:09:58;;;;;;;2.63;1.10;;;18.50;94.20;18.60;100245.00;;;;337546;28;83355;-85
2021/07/09 00:10:10;;;;;;;3.22;1.10;;;18.50;94.30;18.70;100245.00;;;;334385;29;93858;-85
2021/07/09 00:10:22;;;;;;;3.53;1.00;;;18.50;94.30;18.80;100240.00;;;;338911;28;84818;-86
2021/07/09 00:10:34;;;;;;;2.50;0.90;;;18.50;94.50;18.80;100233.00;;;;335510;28;96217;-86
2021/07/09 00:10:46;;;;;;;1.85;1.00;;;18.50;94.00;18.70;100243.00;;;;333695;29;83375;-86
2021/07/09 00:10:58;;;;;;;1.55;0.93;;;18.50;93.80;18.80;100239.00;;;;336985;28;94871;-86
2021/07/09 00:11:09;;;;;;;1.65;0.85;;;18.60;93.80;18.90;100238.00;;;;335062;29;83129;-86
2021/07/09 00:11:21;;;;;;;2.10;0.80;;;18.60;93.80;18.80;100240.00;;;;331404;29;97373;-85
2021/07/09 00:11:36;;;;;;;2.40;0.85;;;18.60;93.70;18.70;100234.00;;;;335066;29;83237;-86
2021/07/09 00:11:49;;;;;;;3.20;0.90;;;18.60;93.60;18.60;100245.00;;;;334225;29;97196;-86
2021/07/09 00:12:01;;;;;;;2.67;0.85;;;18.60;93.60;18.60;100241.00;;;;336768;28;84229;-86
2021/07/09 00:12:14;;;;;;;2.15;0.80;;;18.60;93.70;18.60;100236.00;;;;335668;28;94893;-86
2021/07/09 00:12:26;;;;;;;1.77;0.80;;;18.60;93.70;18.60;100241.00;;;;336306;28;83460;-86
2021/07/09 00:12:38;;;;;;;1.90;0.90;;;18.60;93.80;18.60;100250.00;;;;331660;29;94931;-86
2021/07/09 00:12:49;;;;;;;1.85;0.88;;;18.60;94.00;18.70;100239.00;;;;334964;29;84438;-85
2021/07/09 00:13:02;;;;;;;1.67;0.93;;;18.60;93.90;18.60;100245.00;;;;335600;28;93484;-86
2021/07/09 00:13:13;;;;;;;2.13;0.95;;;18.60;93.90;18.40;100237.00;;;;336117;28;83239;-86
2021/07/09 00:13:25;;;;;;;1.90;0.75;;;18.60;94.10;18.30;100232.00;;;;330500;29;95173;-86
2021/07/09 00:13:38;;;;;;;1.90;0.80;;;18.60;94.20;18.60;100236.00;;;;333780;29;83369;-86
2021/07/09 00:13:50;;;;;;;2.00;0.90;;;18.60;94.10;18.60;100236.00;;;;332890;29;95418;-87
2021/07/09 00:14:03;;;;;;;2.20;0.95;;;18.60;94.00;18.70;100236.00;;;;332308;29;83798;-86
2021/07/09 00:14:26;;;;;;;2.22;0.93;;;18.60;93.90;18.40;100238.00;;;;331643;29;97654;-85
2021/07/09 00:14:38;;;;;;;2.35;1.08;;;18.70;93.90;18.50;100243.00;;;;335006;29;83340;-86
2021/07/09 00:14:50;;;;;;;3.53;1.33;;;18.60;94.00;18.50;100230.00;;;;332811;29;97942;-86
2021/07/09 00:15:02;;;;;;;4.35;1.33;;;18.60;94.00;18.40;100238.00;;;;334606;29;83292;-86
2021/07/09 00:15:14;;;;;;;3.30;0.90;;;18.60;94.00;18.50;100236.00;;;;335564;28;94490;-86
2021/07/09 00:15:26;;;;;;;2.75;0.73;;;18.60;94.00;18.60;100237.00;;;;334890;29;85746;-86
2021/07/09 00:15:38;;;;;;;2.70;0.70;;;18.60;94.00;18.60;100245.00;;;;332896;28;97814;-86
2021/07/09 00:15:50;;;;;;;2.83;0.90;;;18.60;94.00;18.60;100238.00;;;;335107;28;83335;-85
2021/07/09 00:16:02;;;;;;;1.58;0.90;;;18.60;94.00;18.60;100239.00;;;;335322;28;96720;-86
2021/07/09 00:16:16;;;;;;;1.60;0.90;;;18.60;94.00;18.70;100236.00;;;;334653;29;84328;-86
2021/07/09 00:16:27;;;;;;;1.67;0.85;;;18.60;94.00;18.60;100242.00;;;;334336;29;95613;-86
2021/07/09 00:16:41;;;;;;;3.03;1.05;;;18.60;94.10;18.60;100237.00;;;;334819;29;85157;-86
2021/07/09 00:16:55;;;;;;;3.10;1.08;;;18.60;94.10;18.50;100232.00;;;;335170;28;94623;-85
2021/07/09 00:17:07;;;;;;;2.45;1.00;;;18.60;94.20;18.60;100237.00;;;;333808;29;82404;-86
2021/07/09 00:17:19;;;;;;;2.47;1.20;;;18.60;94.10;18.60;100238.00;;;;333925;29;94478;-86
2021/07/09 00:17:31;;;;;;;4.25;1.25;;;18.60;94.10;18.60;100238.00;;;;334734;29;83891;-85
2021/07/09 00:17:43;;;;;;;4.57;1.27;;;18.60;94.10;18.50;100236.00;;;;334184;29;97585;-86
2021/07/09 00:17:55;;;;;;;2.80;0.70;;;18.60;94.00;18.60;100243.00;;;;334589;29;84573;-86
2021/07/09 00:18:07;;;;;;;3.05;0.93;;;18.60;94.00;18.70;100235.00;;;;334963;28;94926;-86
2021/07/09 00:18:18;;;;;;;1.85;1.02;;;18.60;94.00;18.70;100234.00;;;;334980;29;83579;-86
2021/07/09 00:18:30;;;;;;;1.50;1.02;;;18.60;94.00;18.70;100241.00;;;;334351;29;96557;-86
2021/07/09 00:18:43;;;;;;;1.90;1.10;;;18.70;94.00;18.60;100239.00;;;;332101;29;82696;-86
2021/07/09 00:18:57;;;;;;;1.92;1.00;;;18.70;94.00;18.60;100239.00;;;;333876;29;94304;-86
2021/07/09 00:19:09;;;;;;;1.77;0.98;;;18.70;94.00;18.60;100231.00;;;;331171;29;83980;-86
2021/07/09 00:19:20;;;;;;;2.20;1.13;;;18.60;94.00;18.60;100232.00;;;;333073;29;94421;-85
2021/07/09 00:19:34;;;;;;;2.58;1.20;;;18.70;94.10;18.60;100234.00;;;;335990;28;84247;-86
2021/07/09 00:19:46;;;;;;;3.10;1.02;;;18.70;94.10;18.60;100231.00;;;;332919;29;96298;-86
2021/07/09 00:19:57;;;;;;;2.50;0.93;;;18.70;94.10;18.60;100236.00;;;;336257;28;84498;-86
2021/07/09 00:20:10;;;;;;;2.38;0.95;;;18.70;94.10;18.60;100239.00;;;;335589;28;95304;-85
2021/07/09 00:20:22;;;;;;;2.28;1.13;;;18.60;94.00;18.70;100234.00;;;;332385;29;83542;-86
2021/07/09 00:20:33;;;;;;;2.67;1.00;;;18.70;94.10;18.70;100241.00;;;;333158;29;95013;-85
2021/07/09 00:20:45;;;;;;;2.45;0.75;;;18.70;94.10;18.70;100241.00;;;;337559;28;83299;-85
2021/07/09 00:20:57;;;;;;;2.30;0.80;;;18.70;94.40;18.70;100240.00;;;;337367;28;94788;-86
2021/07/09 00:21:09;;;;;;;2.58;0.80;;;18.70;94.10;18.80;100238.00;;;;336282;28;82510;-86
2021/07/09 00:21:21;;;;;;;2.67;0.82;;;18.70;94.10;18.70;100236.00;;;;335366;28;95077;-87
2021/07/09 00:21:33;;;;;;;1.77;0.70;;;18.70;94.10;18.50;100230.00;;;;336475;28;83191;-86
2021/07/09 00:21:45;;;;;;;2.05;0.75;;;18.70;94.10;18.50;100231.00;;;;334064;29;96770;-86
2021/07/09 00:21:59;;;;;;;2.58;0.90;;;18.70;94.20;18.60;100228.00;;;;336010;28;85152;-85
2021/07/09 00:22:11;;;;;;;2.60;0.98;;;18.70;94.10;18.60;100240.00;;;;336969;28;95131;-86
2021/07/09 00:22:23;;;;;;;1.60;0.98;;;18.70;94.10;18.70;100229.00;;;;335088;29;83294;-86
2021/07/09 00:22:35;;;;;;;1.83;1.20;;;18.70;94.40;18.70;100229.00;;;;332993;29;96324;-87
2021/07/09 00:22:49;;;;;;;2.15;1.30;;;18.70;94.20;18.70;100239.00;;;;334860;29;82434;-87
2021/07/09 00:23:01;;;;;;;2.67;1.02;;;18.70;94.10;18.70;100238.00;;;;334330;29;97064;-86
2021/07/09 00:23:13;;;;;;;2.83;0.98;;;18.70;94.10;18.70;100235.00;;;;336289;28;85518;-86
2021/07/09 00:23:24;;;;;;;2.88;0.75;;;18.70;94.10;18.80;100229.00;;;;332856;29;98152;-86
2021/07/09 00:23:36;;;;;;;2.97;0.80;;;18.70;94.10;18.80;100229.00;;;;337746;28;83296;-86
2021/07/09 00:23:50;;;;;;;3.40;0.95;;;18.70;94.20;18.70;100230.00;;;;335578;28;94585;-86
2021/07/09 00:24:02;;;;;;;3.25;1.20;;;18.70;94.20;18.70;100229.00;;;;337829;28;83543;-86
2021/07/09 00:24:14;;;;;;;2.95;1.23;;;18.70;94.20;18.70;100237.00;;;;334101;29;96959;-86
2021/07/09 00:24:26;;;;;;;2.75;0.90;;;18.70;94.20;18.70;100237.00;;;;335593;28;82421;-86
2021/07/09 00:24:38;;;;;;;4.47;1.00;;;18.70;94.20;18.70;100228.00;;;;336931;28;94412;-86
2021/07/09 00:24:50;;;;;;;4.38;1.13;;;18.70;94.20;18.70;100232.00;;;;336139;28;82785;-87
2021/07/09 00:25:01;;;;;;;3.78;1.05;;;18.70;94.20;18.70;100235.00;;;;336939;28;94218;-86
2021/07/09 00:25:13;;;;;;;2.67;0.88;;;18.70;94.20;18.70;100230.00;;;;334988;29;83372;-86
2021/07/09 00:25:25;;;;;;;2.15;0.80;;;18.70;94.20;18.70;100230.00;;;;333029;29;94009;-86
2021/07/09 00:25:37;;;;;;;2.25;0.90;;;18.70;94.20;18.60;100229.00;;;;335027;29;84499;-86
2021/07/09 00:25:49;;;;;;;1.83;0.82;;;18.70;94.20;18.60;100235.00;;;;333981;29;98162;-87
2021/07/09 00:26:00;;;;;;;2.05;0.80;;;18.70;94.20;18.70;100233.00;;;;337491;28;85716;-87
2021/07/09 00:26:13;;;;;;;2.00;0.70;;;18.70;94.20;18.70;100231.00;;;;334381;29;95434;-86
2021/07/09 00:26:25;;;;;;;3.22;0.88;;;18.70;94.50;18.70;100232.00;;;;335004;29;83744;-86
2021/07/09 00:26:36;;;;;;;2.92;0.90;;;18.70;94.20;18.70;100236.00;;;;331726;29;97156;-86
2021/07/09 00:26:48;;;;;;;3.22;0.90;;;18.70;94.50;18.70;100232.00;;;;336307;28;83292;-86
2021/07/09 00:27:03;;;;;;;2.80;1.08;;;18.70;94.20;18.70;100233.00;;;;334576;28;98623;-86
2021/07/09 00:27:15;;;;;;;2.45;1.02;;;18.70;94.20;18.70;100235.00;;;;331146;29;83427;-86
2021/07/09 00:27:26;;;;;;;2.40;0.95;;;18.70;94.10;18.60;100233.00;;;;336681;28;94862;-86
2021/07/09 00:27:38;;;;;;;1.90;0.90;;;18.70;94.10;18.50;100228.00;;;;337528;28;83611;-86
2021/07/09 00:27:50;;;;;;;1.80;0.95;;;18.70;94.10;18.50;100238.00;;;;336821;28;97403;-86
2021/07/09 00:28:03;;;;;;;3.05;0.90;;;18.70;94.20;18.60;100235.00;;;;334665;29;84754;-87
2021/07/09 00:28:15;;;;;;;3.80;1.25;;;18.70;94.40;18.60;100234.00;;;;335464;28;97287;-87
2021/07/09 00:28:27;;;;;;;3.80;1.40;;;18.70;94.10;18.70;100229.00;;;;336227;28;83524;-86
2021/07/09 00:28:39;;;;;;;2.78;1.30;;;18.70;94.20;18.60;100231.00;;;;334403;29;93213;-87
2021/07/09 00:28:51;;;;;;;3.05;1.02;;;18.70;94.20;18.70;100232.00;;;;336025;28;83683;-87
2021/07/09 00:29:03;;;;;;;2.83;1.00;;;18.70;94.20;18.70;100236.00;;;;334277;29;97412;-86
2021/07/09 00:29:15;;;;;;;2.00;0.90;;;18.70;94.20;18.70;100231.00;;;;334806;28;85572;-87
2021/07/09 00:29:27;;;;;;;1.77;0.95;;;18.60;94.20;18.70;100235.00;;;;335658;28;94827;-86
2021/07/09 00:29:39;;;;;;;1.95;1.02;;;18.70;94.20;18.50;100230.00;;;;335096;29;83225;-86
2021/07/09 00:29:51;;;;;;;1.90;1.00;;;18.60;94.20;18.60;100238.00;;;;333959;29;94566;-87
2021/07/09 00:30:04;;;;;;;2.42;1.20;;;18.60;94.20;18.50;100236.00;;;;334949;29;83438;-86
2021/07/09 00:30:15;;;;;;;2.40;1.25;;;18.60;94.20;18.50;100240.00;;;;336898;28;95150;-86
2021/07/09 00:30:27;;;;;;;2.33;1.15;;;18.60;94.20;18.40;100229.00;;;;337553;28;83441;-86
2021/07/09 00:30:39;;;;;;;2.28;1.10;;;18.60;94.20;18.50;100236.00;;;;335587;28;94493;-86
2021/07/09 00:30:51;;;;;;;2.97;1.30;;;18.60;94.20;18.50;100233.00;;;;333840;29;83467;-86
2021/07/09 00:31:03;;;;;;;4.07;1.58;;;18.60;94.30;18.50;100231.00;;;;331844;29;94554;-86
2021/07/09 00:31:15;;;;;;;3.50;1.58;;;18.60;94.30;18.40;100226.00;;;;333669;29;83483;-86
2021/07/09 00:31:31;;;;;;;3.42;1.33;;;18.60;94.30;18.40;100231.00;;;;332951;29;95263;-86
2021/07/09 00:31:42;;;;;;;2.67;1.00;;;18.60;94.40;18.50;100235.00;;;;335052;29;83406;-87
2021/07/09 00:31:54;;;;;;;2.40;1.08;;;18.60;94.40;18.50;100233.00;;;;334187;29;96805;-86
2021/07/09 00:32:07;;;;;;;1.85;1.00;;;18.60;94.60;18.50;100233.00;;;;333659;29;84416;-87
2021/07/09 00:32:19;;;;;;;2.10;0.90;;;18.60;94.40;18.60;100236.00;;;;334188;29;95692;-86
2021/07/09 00:32:31;;;;;;;1.92;0.80;;;18.60;94.40;18.50;100233.00;;;;334745;29;83377;-87
2021/07/09 00:32:43;;;;;;;1.80;0.90;;;18.60;94.40;18.50;100231.00;;;;338171;28;94152;-87
2021/07/09 00:32:55;;;;;;;2.40;1.20;;;18.60;94.40;18.50;100230.00;;;;336026;28;83519;-86
2021/07/09 00:33:06;;;;;;;2.17;1.08;;;18.50;94.50;18.50;100225.00;;;;335783;28;93891;-86
2021/07/09 00:33:18;;;;;;;2.03;1.00;;;18.50;94.40;18.50;100230.00;;;;333628;29;83586;-86
2021/07/09 00:33:30;;;;;;;2.03;1.02;;;18.60;94.40;18.50;100226.00;;;;332897;29;98731;-86
2021/07/09 00:33:42;;;;;;;2.13;1.00;;;18.60;94.40;18.50;100224.00;;;;333754;29;83264;-87
2021/07/09 00:33:54;;;;;;;3.03;1.15;;;18.60;94.40;18.50;100226.00;;;;331898;29;94451;-86
2021/07/09 00:34:07;;;;;;;3.90;1.23;;;18.60;94.50;18.50;100232.00;;;;333640;29;83557;-86
2021/07/09 00:34:20;;;;;;;3.40;1.20;;;18.60;94.50;18.50;100231.00;;;;332775;29;98235;-86
2021/07/09 00:34:32;;;;;;;2.25;1.30;;;18.50;94.80;18.50;100236.00;;;;331256;29;83545;-86
2021/07/09 00:34:44;;;;;;;3.83;1.63;;;18.50;94.50;18.50;100223.00;;;;332963;29;95826;-86
2021/07/09 00:34:55;;;;;;;4.50;1.77;;;18.50;94.50;18.50;100225.00;;;;332497;29;82251;-86
2021/07/09 00:35:08;;;;;;;3.60;1.33;;;18.60;94.60;18.50;100228.00;;;;334308;29;97659;-86
2021/07/09 00:35:20;;;;;;;2.40;1.00;;;18.50;94.60;18.60;100231.00;;;;332476;29;83228;-87
2021/07/09 00:35:31;;;;;;;1.90;0.90;;;18.50;94.50;18.60;100230.00;;;;333046;29;94482;-86
2021/07/09 00:35:43;;;;;;;1.65;0.93;;;18.60;94.60;18.60;100222.00;;;;333728;29;84227;-86
2021/07/09 00:35:55;;;;;;;2.30;1.08;;;18.50;94.60;18.50;100223.00;;;;331982;29;97863;-87
2021/07/09 00:36:07;;;;;;;2.95;1.17;;;18.50;94.70;18.40;100226.00;;;;334376;29;84136;-86
2021/07/09 00:36:19;;;;;;;3.30;1.05;;;18.50;94.70;18.40;100228.00;;;;332953;29;98080;-86
2021/07/09 00:36:31;;;;;;;3.40;1.08;;;18.50;94.70;18.40;100227.00;;;;335050;29;83245;-87
2021/07/09 00:36:42;;;;;;;3.28;1.20;;;18.50;94.70;18.30;100226.00;;;;334076;29;96022;-86
2021/07/09 00:36:54;;;;;;;2.22;1.10;;;18.50;94.70;18.20;100232.00;;;;336641;28;82176;-86
2021/07/09 00:37:06;;;;;;;1.52;1.02;;;18.50;94.80;18.20;100232.00;;;;336660;28;97771;-87
2021/07/09 00:37:18;;;;;;;1.25;0.82;;;18.40;94.80;18.20;100224.00;;;;336221;28;84245;-86
2021/07/09 00:37:30;;;;;;;1.40;0.98;;;18.50;94.90;18.20;100222.00;;;;335598;28;93615;-87
2021/07/09 00:37:41;;;;;;;2.83;1.17;;;18.40;94.80;18.30;100219.00;;;;335159;29;83252;-86
2021/07/09 00:37:53;;;;;;;3.83;1.50;;;18.40;94.80;18.30;100231.00;;;;334234;29;96785;-86
2021/07/09 00:38:05;;;;;;;3.95;1.65;;;18.50;94.90;18.30;100223.00;;;;334801;29;84804;-86
2021/07/09 00:38:17;;;;;;;2.95;1.48;;;18.40;94.90;18.40;100221.00;;;;336845;28;95873;-86
2021/07/09 00:38:28;;;;;;;2.92;1.55;;;18.40;94.90;18.40;100221.00;;;;335152;29;82261;-87
2021/07/09 00:38:40;;;;;;;3.05;1.50;;;18.40;94.80;18.40;100223.00;;;;336953;28;94497;-87
2021/07/09 00:38:52;;;;;;;3.00;1.45;;;18.50;94.90;18.40;100229.00;;;;335498;28;83715;-87
2021/07/09 00:39:06;;;;;;;2.35;1.20;;;18.40;94.80;18.40;100224.00;;;;336825;28;96792;-86
2021/07/09 00:39:18;;;;;;;2.45;1.25;;;18.50;94.80;18.40;100219.00;;;;333777;29;82376;-86
2021/07/09 00:39:30;;;;;;;2.50;1.17;;;18.50;94.90;18.40;100216.00;;;;332960;29;96796;-86
2021/07/09 00:39:42;;;;;;;2.30;1.20;;;18.40;94.80;18.40;100217.00;;;;332469;29;82334;-86
2021/07/09 00:39:54;;;;;;;2.63;1.38;;;18.40;94.80;18.40;100217.00;;;;333023;29;94320;-87
2021/07/09 00:40:07;;;;;;;3.30;1.08;;;18.40;94.80;18.40;100225.00;;;;334814;29;86087;-86
2021/07/09 00:40:19;;;;;;;3.50;1.10;;;18.40;94.80;18.40;100225.00;;;;331673;29;98769;-86
2021/07/09 00:40:31;;;;;;;3.15;1.13;;;18.40;94.80;18.40;100225.00;;;;332405;29;83370;-87
2021/07/09 00:40:43;;;;;;;2.80;1.15;;;18.40;94.80;18.30;100233.00;;;;334058;29;95710;-86
2021/07/09 00:40:57;;;;;;;2.78;1.17;;;18.40;94.80;18.30;100227.00;;;;337597;28;83518;-86
2021/07/09 00:41:09;;;;;;;3.08;1.08;;;18.40;94.90;18.40;100226.00;;;;333913;29;97858;-86
2021/07/09 00:41:23;;;;;;;2.00;0.88;;;18.40;94.80;18.50;100221.00;;;;336371;28;83342;-86
2021/07/09 00:41:35;;;;;;;1.40;0.80;;;18.50;94.80;18.60;100227.00;;;;333104;29;93797;-87
2021/07/09 00:41:47;;;;;;;1.35;0.77;;;18.50;94.80;18.60;100223.00;;;;333697;29;83569;-86
2021/07/09 00:41:59;;;;;;;2.50;1.08;;;18.50;94.90;18.50;100218.00;;;;334687;28;97776;-86
2021/07/09 00:42:11;;;;;;;2.50;1.15;;;18.50;94.90;18.30;100231.00;;;;335005;29;82524;-86
2021/07/09 00:42:23;;;;;;;2.40;1.17;;;18.50;94.90;18.20;100227.00;;;;331702;29;97558;-86
2021/07/09 00:42:35;;;;;;;2.05;0.90;;;18.50;94.90;18.30;100228.00;;;;335001;29;83668;-86
2021/07/09 00:42:47;;;;;;;2.45;0.95;;;18.50;94.90;18.50;100224.00;;;;335626;28;94429;-86
2021/07/09 00:42:59;;;;;;;3.67;0.90;;;18.50;94.90;18.50;100225.00;;;;336876;28;83544;-86
2021/07/09 00:43:11;;;;;;;4.13;0.90;;;18.50;95.20;18.50;100226.00;;;;334294;29;94799;-86
2021/07/09 00:43:23;;;;;;;3.53;1.05;;;18.50;94.90;18.40;100229.00;;;;336128;28;83390;-87
2021/07/09 00:43:36;;;;;;;2.50;1.00;;;18.50;94.90;18.30;100227.00;;;;331565;29;97879;-87
2021/07/09 00:43:47;;;;;;;3.80;1.20;;;18.50;94.90;18.20;100225.00;;;;334985;29;84584;-86
2021/07/09 00:44:00;;;;;;;4.00;1.10;;;18.50;94.90;18.20;100222.00;;;;338210;28;94432;-86
2021/07/09 00:44:11;;;;;;;2.67;1.05;;;18.50;94.90;18.30;100228.00;;;;336061;28;83521;-87
2021/07/09 00:44:23;;;;;;;2.47;0.98;;;18.40;94.90;18.30;100225.00;;;;337813;28;95306;-86
2021/07/09 00:44:35;;;;;;;5.72;1.40;;;18.50;95.00;18.30;100220.00;;;;337472;28;83290;-87
2021/07/09 00:44:47;;;;;;;5.50;1.48;;;18.50;95.00;18.30;100226.00;;;;334292;28;94260;-86
2021/07/09 00:45:00;;;;;;;4.60;1.33;;;18.40;94.90;18.20;100229.00;;;;334583;29;83484;-87
2021/07/09 00:45:13;;;;;;;1.85;0.93;;;18.40;95.00;18.20;100225.00;;;;336547;28;94239;-86
2021/07/09 00:45:25;;;;;;;1.73;0.95;;;18.40;95.00;18.20;100220.00;;;;332938;29;83670;-87
2021/07/09 00:45:37;;;;;;;1.90;1.00;;;18.40;95.00;18.20;100226.00;;;;331878;29;94790;-86
2021/07/09 00:45:49;;;;;;;2.30;0.90;;;18.40;95.00;18.20;100227.00;;;;333753;29;83487;-86
2021/07/09 00:46:01;;;;;;;4.43;1.50;;;18.40;95.00;18.20;100232.00;;;;334083;29;94733;-88
2021/07/09 00:46:13;;;;;;;5.07;1.50;;;18.40;95.00;18.20;100230.00;;;;335014;28;84739;-87
2021/07/09 00:46:36;;;;;;;3.08;1.23;;;18.40;95.10;18.30;100227.00;;;;336945;28;95490;-86
2021/07/09 00:46:50;;;;;;;2.35;1.00;;;18.40;95.30;18.30;100222.00;;;;337361;28;83424;-87
2021/07/09 00:47:02;;;;;;;1.52;0.95;;;18.40;95.10;18.30;100221.00;;;;332938;29;97957;-86
2021/07/09 00:47:14;;;;;;;2.30;1.10;;;18.40;95.10;18.30;100221.00;;;;334687;29;84765;-87
2021/07/09 00:47:26;;;;;;;2.25;1.05;;;18.40;95.10;18.20;100226.00;;;;334989;28;98210;-86
2021/07/09 00:47:37;;;;;;;2.17;1.05;;;18.40;95.10;18.20;100221.00;;;;336225;28;84602;-86
2021/07/09 00:47:49;;;;;;;2.03;1.13;;;18.40;95.10;18.10;100221.00;;;;336745;28;94681;-86
2021/07/09 00:48:01;;;;;;;2.60;1.30;;;18.40;95.10;18.00;100222.00;;;;335207;28;83452;-86
2021/07/09 00:48:13;;;;;;;3.15;1.20;;;18.40;95.10;18.00;100222.00;;;;337962;28;93708;-87
2021/07/09 00:48:28;;;;;;;3.13;1.10;;;18.40;95.30;17.90;100226.00;;;;334305;29;85053;-86
2021/07/09 00:48:40;;;;;;;1.83;1.13;;;18.30;95.30;17.90;100222.00;;;;335331;28;98936;-87
2021/07/09 00:48:52;;;;;;;2.13;1.30;;;18.30;95.30;17.80;100228.00;;;;334848;29;83488;-87
2021/07/09 00:49:07;;;;;;;2.00;1.20;;;18.30;95.30;17.70;100226.00;;;;335552;28;94081;-87
2021/07/09 00:49:20;;;;;;;2.10;1.23;;;18.20;95.60;17.80;100218.00;;;;336267;28;84880;-86
2021/07/09 00:49:33;;;;;;;3.33;1.48;;;18.30;95.40;18.00;100219.00;;;;334277;29;94709;-87
2021/07/09 00:49:45;;;;;;;3.85;1.55;;;18.20;95.40;18.00;100218.00;;;;334864;29;83480;-86
2021/07/09 00:49:56;;;;;;;4.93;1.52;;;18.20;95.50;17.90;100216.00;;;;334132;28;98345;-87
2021/07/09 00:50:09;;;;;;;4.38;1.00;;;18.30;95.60;17.90;100222.00;;;;336253;28;83429;-87
2021/07/09 00:50:21;;;;;;;3.33;0.93;;;18.20;95.50;18.00;100224.00;;;;334370;29;94497;-86
2021/07/09 00:50:33;;;;;;;3.08;0.90;;;18.20;95.50;18.00;100217.00;;;;336092;28;85369;-87
2021/07/09 00:50:45;;;;;;;2.55;1.15;;;18.20;95.40;18.00;100219.00;;;;334131;29;95411;-86
2021/07/09 00:51:01;;;;;;;2.63;1.42;;;18.20;95.40;18.00;100220.00;;;;332250;29;84412;-86
2021/07/09 00:51:13;;;;;;;2.95;1.63;;;18.20;95.50;18.00;100222.00;;;;335183;28;95091;-87
2021/07/09 00:51:25;;;;;;;2.38;1.55;;;18.20;95.50;18.00;100219.00;;;;334310;29;83268;-87
2021/07/09 00:51:38;;;;;;;2.30;1.50;;;18.20;95.50;18.00;100215.00;;;;333102;29;94857;-86
2021/07/09 00:51:50;;;;;;;2.15;1.10;;;18.20;95.50;18.00;100218.00;;;;334920;29;83734;-86
2021/07/09 00:52:02;;;;;;;2.25;1.20;;;18.20;95.40;18.10;100221.00;;;;334373;28;97621;-87
2021/07/09 00:52:14;;;;;;;3.00;1.40;;;18.20;95.50;18.20;100218.00;;;;335047;29;82418;-87
2021/07/09 00:52:26;;;;;;;2.78;1.23;;;18.20;95.50;18.20;100214.00;;;;334457;29;94057;-86
2021/07/09 00:52:37;;;;;;;2.33;0.95;;;18.20;95.50;18.10;100222.00;;;;336214;28;84694;-86
2021/07/09 00:52:49;;;;;;;4.28;1.35;;;18.20;95.50;18.10;100223.00;;;;336882;28;95021;-86
2021/07/09 00:53:01;;;;;;;4.72;1.50;;;18.20;95.50;18.00;100221.00;;;;337233;28;84222;-87
2021/07/09 00:53:13;;;;;;;4.10;1.17;;;18.20;95.60;18.10;100225.00;;;;335542;28;94129;-86
2021/07/09 00:53:25;;;;;;;1.58;0.90;;;18.20;95.50;18.00;100226.00;;;;333674;29;83266;-86
2021/07/09 00:53:37;;;;;;;1.85;1.05;;;18.20;95.60;18.00;100218.00;;;;335593;28;96988;-86
2021/07/09 00:53:49;;;;;;;2.78;1.23;;;18.20;95.60;18.10;100218.00;;;;336327;28;83205;-85
2021/07/09 00:54:01;;;;;;;3.17;1.30;;;18.20;95.60;18.10;100227.00;;;;335558;28;94126;-86
2021/07/09 00:54:13;;;;;;;2.65;1.23;;;18.20;95.60;18.10;100221.00;;;;337469;28;82496;-87
2021/07/09 00:54:24;;;;;;;2.55;1.27;;;18.20;95.60;18.10;100218.00;;;;333773;29;94544;-87
2021/07/09 00:54:36;;;;;;;2.67;1.38;;;18.20;95.50;18.10;100224.00;;;;334960;29;84092;-86
2021/07/09 00:54:48;;;;;;;2.10;1.25;;;18.20;95.60;18.10;100223.00;;;;334336;29;95187;-87
2021/07/09 00:55:00;;;;;;;1.75;1.17;;;18.20;95.50;18.20;100218.00;;;;333943;29;83287;-86